Aérodrome :
LOGIN :

S'inscrire | Disclaimer

   EN    FR    IT 

 










Légende :    VFR   VFR Marginal   IFR   IFR Intensif   IFR Très Intensif
Visi : 
Plafond : 
>= 8 km
>= 3000ft
5 à 8 km
1000 à 3000 ft
1500m à 5 km
500 à 1000 ft
800 à 1500m
200 à 500 ft
< 800m
< 200 ft
Symboles :   Orages  Brouillard  Fortes neiges  Fortes précipitations  Vent > 20 kt
SIGMETs :   Divers  Orages  Givrage  Turbulence  Onde Orograph.  Cendres Volcan.






- Altitude de l'aérodrome : 1503 ft
- Code IATA : HMV


ESUT - Hemavan

DERNIER METAR :
  • 091750Z AUTO 30010KT 9999 FEW035/// SCT059/// M03/M08 Q1013

METARs EXPIRÉS :
  • 091720Z AUTO 32013KT 9999 FEW019/// OVC044/// M02/M08 Q1014
  • 091650Z AUTO 29011KT 9999 -SN SCT028/// BKN039/// OVC053/// M02/M07 Q1013 RESG REFZUP
  • 091620Z AUTO 32010KT 9999 BKN026/// OVC034/// M02/M07 Q1013
  • 091550Z AUTO 31014KT 9999 BKN038/// OVC055/// M02/M07 Q1013
  • 091520Z AUTO 32017KT 9999 FEW049/// M02/M08 Q1013

TAF N/A



MET'MAP, la Météo Aéronautique d'un coup d'oeil ! - Copyright ORBIFLY Décembre 2007 - Disclaimer

ORBIFLY MET'MAP TEAM :

Programmation & Développement : Alexandra Zaïnal
Sur une idée originale de : Baudouin d'Aumeries
Assistance à la programmation : Marc-Olivier Méhu
Soutien technique & logistique : Manuel Goepfert

Contact : metmap@orbifly.com




SOURCES & CREDITS :

   NOAA